METAR Formatted Surface Weather Observation
Issued by NWS

Home | Current Version | Previous Version | Text Only | Print | Product List | Glossary On
Versions: 1
000
SAUS42 KTAE 302359
MTR1J0
METAR K1J0 302358Z AUTO 00000KT 10SM BKN037 22/20 A2989 RMK AO2
SLP080 T02170200 10250 20217 53005



USA.gov is the U.S. government's official web portal to all federal, state and local government web resources and services.